Time;durP1;ratioP1;P1;durP2;ratioP2;P2;SDS_P1;SDS_P2;PMS_P1;PMS_P2;Temp;Humidity;BMP_temperature;BMP_pressure;BME280_temperature;BME280_humidity;BME280_pressure;Samples;Min_cycle;Max_cycle;Signal;HPM_P1;HPM_P2
2021/03/22 00:02:04;;;;;;;;;;;;;;;2.27;60.85;100112.52;1700423;83;20296;-56
2021/03/22 00:05:11;;;;;;;;;;;;;;;2.20;60.97;100114.91;1702797;83;20560;-55
2021/03/22 00:08:16;;;;;;;;;;;;;;;2.15;61.12;100114.92;1700186;83;20297;-56
2021/03/22 00:11:21;;;;;;;;;;;;;;;2.08;61.29;100108.34;1700158;83;20288;-57
2021/03/22 00:14:27;;;;;;;;;;;;;;;1.99;61.51;100100.52;1700695;83;20205;-56
2021/03/22 00:17:31;;;;;;;;;;;;;;;1.96;61.73;100098.55;1700136;83;20220;-55
2021/03/22 00:20:36;;;;;;;;;;;;;;;1.93;61.90;100096.98;1700501;83;20241;-54
2021/03/22 00:23:39;;;;;;;;;;;;;;;1.92;62.05;100101.16;1700163;83;20208;-56
2021/03/22 00:26:45;;;;;;;;;;;;;;;1.89;62.21;100090.63;1700608;83;20292;-55
2021/03/22 00:29:51;;;;;;;;;;;;;;;1.86;62.37;100089.50;1700376;83;20218;-54
2021/03/22 00:32:57;;;;;;;;;;;;;;;1.83;62.56;100081.19;1688386;83;20266;-55
2021/03/22 00:36:04;;;;;;;;;;;;;;;1.78;62.64;100074.45;1737646;82;20234;-55
2021/03/22 00:39:08;;;;;;;;;;;;;;;1.75;62.78;100069.31;1737940;82;20198;-55
2021/03/22 00:42:13;;;;;;;;;;;;;;;1.75;62.88;100063.44;1738090;82;20275;-56
2021/03/22 00:45:20;;;;;;;;;;;;;;;1.73;62.93;100057.81;1737946;82;20238;-56
2021/03/22 00:48:26;;;;;;;;;;;;;;;1.70;62.98;100056.20;1737885;82;20249;-56
2021/03/22 00:51:31;;;;;;;;;;;;;;;1.67;63.14;100050.20;1738962;81;20203;-54
2021/03/22 00:54:37;;;;;;;;;;;;;;;1.65;63.25;100053.55;1745396;82;20203;-55
2021/03/22 00:57:40;;;;;;;;;;;;;;;1.61;63.25;100055.64;1745390;82;20502;-54
2021/03/22 01:00:50;;;;;;;;;;;;;;;1.60;63.32;100050.37;1745358;82;20219;-56
2021/03/22 01:03:54;;;;;;;;;;;;;;;1.58;63.41;100050.98;1745356;82;20276;-56
2021/03/22 01:06:57;;;;;;;;;;;;;;;1.55;63.46;100051.59;1745289;82;20223;-55
2021/03/22 01:10:03;;;;;;;;;;;;;;;1.55;63.58;100049.41;1745413;82;20212;-55
2021/03/22 01:13:09;;;;;;;;;;;;;;;1.53;63.66;100052.23;1745498;82;20253;-55
2021/03/22 01:16:12;;;;;;;;;;;;;;;1.54;63.75;100053.06;1745283;82;20187;-55
2021/03/22 01:19:23;;;;;;;;;;;;;;;1.52;63.79;100042.92;1745403;82;20235;-55
2021/03/22 01:22:28;;;;;;;;;;;;;;;1.48;63.90;100038.75;1745322;82;20226;-55
2021/03/22 01:25:32;;;;;;;;;;;;;;;1.48;64.00;100043.66;1745205;82;20211;-55
2021/03/22 01:28:35;;;;;;;;;;;;;;;1.49;64.06;100039.97;1745646;82;20240;-54
2021/03/22 01:31:39;;;;;;;;;;;;;;;1.47;64.13;100045.14;1745258;82;20207;-55
2021/03/22 01:34:42;;;;;;;;;;;;;;;1.45;64.17;100034.96;1745513;82;20210;-54
2021/03/22 01:37:46;;;;;;;;;;;;;;;1.44;64.26;100036.80;1745255;82;20212;-55
2021/03/22 01:41:05;;;;;;;;;;;;;;;1.44;64.31;100030.56;1745389;82;20247;-54
2021/03/22 01:44:26;;;;;;;;;;;;;;;1.44;64.32;100038.66;1745505;82;20203;-54
2021/03/22 01:47:33;;;;;;;;;;;;;;;1.42;64.39;100046.87;1745406;82;20195;-54
2021/03/22 01:50:39;;;;;;;;;;;;;;;1.40;64.47;100048.83;1745293;82;20290;-56
2021/03/22 01:53:43;;;;;;;;;;;;;;;1.37;64.52;100049.09;1748467;81;20211;-56
2021/03/22 01:56:59;;;;;;;;;;;;;;;1.35;64.62;100040.25;1756805;81;20310;-54
2021/03/22 02:00:23;;;;;;;;;;;;;;;1.34;64.67;100039.91;1750812;82;20211;-55
2021/03/22 02:03:27;;;;;;;;;;;;;;;1.32;64.70;100037.81;1755946;81;20298;-54
2021/03/22 02:06:32;;;;;;;;;;;;;;;1.30;64.77;100029.50;1756123;81;20207;-54
2021/03/22 02:09:35;;;;;;;;;;;;;;;1.29;64.80;100027.28;1751716;81;20218;-54
2021/03/22 02:12:40;;;;;;;;;;;;;;;1.28;64.80;100028.28;1755973;81;20301;-54
2021/03/22 02:15:46;;;;;;;;;;;;;;;1.25;64.87;100029.86;1750803;82;20231;-55
2021/03/22 02:19:12;;;;;;;;;;;;;;;1.26;64.95;100026.67;1756547;81;20275;-54
2021/03/22 02:22:45;;;;;;;;;;;;;;;1.23;64.95;100025.10;1755715;80;20314;-55
2021/03/22 02:26:01;;;;;;;;;;;;;;;1.21;64.99;100024.36;1751179;81;20258;-56
2021/03/22 02:29:27;;;;;;;;;;;;;;;1.21;65.05;100024.36;1751181;81;20207;-54
2021/03/22 02:32:45;;;;;;;;;;;;;;;1.21;65.06;100016.76;1750755;82;20211;-54
2021/03/22 02:36:13;;;;;;;;;;;;;;;1.18;65.03;100020.58;1756254;81;20322;-56
2021/03/22 02:39:16;;;;;;;;;;;;;;;1.18;65.08;100019.70;1751241;81;20199;-56
2021/03/22 02:42:21;;;;;;;;;;;;;;;1.17;65.09;100020.19;1756229;81;20246;-54
2021/03/22 02:45:32;;;;;;;;;;;;;;;1.17;65.12;100018.84;1750819;82;20228;-56
2021/03/22 02:48:37;;;;;;;;;;;;;;;1.17;65.08;100019.35;1756626;81;20337;-54
2021/03/22 02:52:14;;;;;;;;;;;;;;;1.13;65.15;100017.39;1751723;81;20199;-54
2021/03/22 02:55:47;;;;;;;;;;;;;;;1.11;65.19;100018.52;1742474;80;20247;-55
2021/03/22 02:59:00;;;;;;;;;;;;;;;1.11;65.26;100017.17;1701321;84;20219;-55
2021/03/22 03:02:09;;;;;;;;;;;;;;;1.11;65.28;100004.52;1712207;83;20215;-56
2021/03/22 03:05:21;;;;;;;;;;;;;;;1.10;65.31;100006.00;1709192;83;20204;-56
2021/03/22 03:08:31;;;;;;;;;;;;;;;1.10;65.35;100005.52;1712120;83;20209;-54
2021/03/22 03:11:34;;;;;;;;;;;;;;;1.11;65.32;100009.08;1711026;83;20244;-56
2021/03/22 03:14:38;;;;;;;;;;;;;;;1.13;65.30;100008.44;1712244;83;20223;-56
2021/03/22 03:17:42;;;;;;;;;;;;;;;1.13;65.28;100010.66;1712009;83;20244;-56
2021/03/22 03:20:46;;;;;;;;;;;;;;;1.11;65.25;100000.48;1711752;83;20220;-56
2021/03/22 03:23:51;;;;;;;;;;;;;;;1.10;65.29;100005.52;1711482;83;20259;-55
2021/03/22 03:26:55;;;;;;;;;;;;;;;1.10;65.25;100005.52;1708542;83;20204;-54
2021/03/22 03:29:58;;;;;;;;;;;;;;;1.10;65.27;99997.91;1712488;83;20825;-55
2021/03/22 03:33:02;;;;;;;;;;;;;;;1.08;65.29;99998.05;1710995;83;20295;-57
2021/03/22 03:36:06;;;;;;;;;;;;;;;1.04;65.35;99993.91;1712454;83;20246;-55
2021/03/22 03:39:11;;;;;;;;;;;;;;;1.03;65.42;99988.64;1709765;83;20211;-55
2021/03/22 03:42:16;;;;;;;;;;;;;;;1.04;65.44;99988.99;1710652;83;20211;-54
2021/03/22 03:45:21;;;;;;;;;;;;;;;1.03;65.42;99984.59;1710451;83;20247;-55
2021/03/22 03:48:28;;;;;;;;;;;;;;;1.03;65.46;99981.39;1710665;83;20259;-55
2021/03/22 03:51:32;;;;;;;;;;;;;;;1.04;65.44;99971.00;1708484;83;20256;-55
2021/03/22 03:54:36;;;;;;;;;;;;;;;1.09;65.38;99971.48;1709296;83;20290;-56
2021/03/22 03:57:40;;;;;;;;;;;;;;;1.15;65.35;99967.41;1699011;84;20315;-56
2021/03/22 04:00:46;;;;;;;;;;;;;;;1.22;65.24;99965.41;1698960;84;20636;-54
2021/03/22 04:03:51;;;;;;;;;;;;;;;1.32;65.07;99973.11;1700832;84;20264;-53
2021/03/22 04:06:54;;;;;;;;;;;;;;;1.41;64.88;99973.68;1695928;84;20541;-54
2021/03/22 04:09:58;;;;;;;;;;;;;;;1.50;64.65;99968.02;1696313;84;20280;-54
2021/03/22 04:13:02;;;;;;;;;;;;;;;1.57;64.49;99966.50;1694543;84;20237;-54
2021/03/22 04:16:08;;;;;;;;;;;;;;;1.65;64.34;99964.53;1695945;84;20229;-53
2021/03/22 04:19:13;;;;;;;;;;;;;;;1.74;64.15;99970.48;1693987;84;20220;-51
2021/03/22 04:22:18;;;;;;;;;;;;;;;1.80;63.86;99963.21;1692375;84;20276;-52
2021/03/22 04:25:22;;;;;;;;;;;;;;;1.88;63.80;99970.16;1691845;84;20683;-51
2021/03/22 04:28:29;;;;;;;;;;;;;;;1.97;63.60;99963.97;1693348;84;20213;-52
2021/03/22 04:31:34;;;;;;;;;;;;;;;2.08;63.39;99966.11;1692849;84;20283;-53
2021/03/22 04:34:40;;;;;;;;;;;;;;;2.19;63.14;99967.90;1700530;84;20553;-51
2021/03/22 04:37:45;;;;;;;;;;;;;;;2.28;62.82;99975.19;1695999;84;20208;-53
2021/03/22 04:40:50;;;;;;;;;;;;;;;2.34;62.62;99963.36;1696701;84;20212;-52
2021/03/22 04:43:54;;;;;;;;;;;;;;;2.42;62.37;99969.43;1699242;84;20244;-53
2021/03/22 04:46:59;;;;;;;;;;;;;;;2.49;62.15;99959.30;1683788;84;20248;-54
2021/03/22 04:50:03;;;;;;;;;;;;;;;2.53;61.92;99963.94;1698721;84;20249;-53
2021/03/22 04:53:07;;;;;;;;;;;;;;;2.55;61.75;99956.05;1699303;84;20324;-53
2021/03/22 04:56:13;;;;;;;;;;;;;;;2.59;61.59;99952.10;1715428;81;20219;-51
2021/03/22 04:59:17;;;;;;;;;;;;;;;2.64;61.43;99954.39;1755527;81;20243;-52
2021/03/22 05:02:21;;;;;;;;;;;;;;;2.72;61.29;99951.86;1751026;81;20262;-53
2021/03/22 05:05:26;;;;;;;;;;;;;;;2.78;61.05;99948.12;1751238;81;20543;-52
2021/03/22 05:12:13;;;;;;;;;;;;;;;2.97;60.68;99940.55;1753978;81;20282;-54
2021/03/22 05:15:18;;;;;;;;;;;;;;;3.07;60.47;99956.31;1751705;81;20203;-52
2021/03/22 05:18:23;;;;;;;;;;;;;;;3.15;60.28;99959.17;1753914;81;20231;-52
2021/03/22 05:21:32;;;;;;;;;;;;;;;3.25;60.04;99963.25;1752294;81;20598;-52
2021/03/22 05:24:40;;;;;;;;;;;;;;;3.30;59.78;99960.46;1753982;81;20307;-52
2021/03/22 05:27:47;;;;;;;;;;;;;;;3.33;59.63;99962.05;1751227;81;20200;-51
2021/03/22 05:30:57;;;;;;;;;;;;;;;3.34;59.53;99963.75;1754200;81;20218;-53
2021/03/22 05:34:02;;;;;;;;;;;;;;;3.34;59.48;99948.88;1751132;81;20211;-52
2021/03/22 05:37:10;;;;;;;;;;;;;;;3.37;59.46;99957.56;1753868;81;20310;-54
2021/03/22 05:40:18;;;;;;;;;;;;;;;3.38;59.50;99951.15;1754756;81;20282;-53
2021/03/22 05:43:51;;;;;;;;;;;;;;;3.42;59.41;99957.14;1751546;81;20543;-53
2021/03/22 05:47:07;;;;;;;;;;;;;;;3.49;59.41;99954.24;1751790;81;20284;-53
2021/03/22 05:50:24;;;;;;;;;;;;;;;3.56;59.49;99951.30;1751296;81;20214;-52
2021/03/22 05:53:44;;;;;;;;;;;;;;;3.64;59.32;99952.80;1754587;81;20202;-53
2021/03/22 05:57:10;;;;;;;;;;;;;;;3.72;59.35;99952.45;1724078;82;20255;-52
2021/03/22 06:00:25;;;;;;;;;;;;;;;3.80;59.09;99951.73;1713974;84;20255;-53
2021/03/22 06:03:54;;;;;;;;;;;;;;;3.80;59.01;99946.32;1715437;82;20219;-51
2021/03/22 06:07:06;;;;;;;;;;;;;;;3.80;59.00;99948.53;1714892;82;20575;-51
2021/03/22 06:10:13;;;;;;;;;;;;;;;3.82;59.08;99946.52;1714507;82;20238;-51
2021/03/22 06:13:19;;;;;;;;;;;;;;;3.80;59.00;99947.19;1685058;84;20560;-51
2021/03/22 06:16:28;;;;;;;;;;;;;;;3.82;58.93;99947.03;1744485;82;20235;-52
2021/03/22 06:19:34;;;;;;;;;;;;;;;3.83;58.87;99944.67;1744811;82;20547;-53
2021/03/22 06:22:40;;;;;;;;;;;;;;;3.89;58.96;99945.45;1745439;82;20271;-52
2021/03/22 06:25:47;;;;;;;;;;;;;;;3.94;58.98;99937.75;1745506;81;20297;-52
2021/03/22 06:28:58;;;;;;;;;;;;;;;4.03;58.90;99939.58;1745694;82;20223;-52
2021/03/22 06:32:09;;;;;;;;;;;;;;;4.08;59.15;99931.39;1745670;82;20295;-52
2021/03/22 06:35:19;;;;;;;;;;;;;;;4.12;59.16;99934.14;1745938;82;20500;-52
2021/03/22 06:38:26;;;;;;;;;;;;;;;4.17;59.05;99929.67;1745107;82;20204;-52
2021/03/22 06:41:51;;;;;;;;;;;;;;;4.21;59.01;99930.58;1745250;82;20199;-52
2021/03/22 06:44:59;;;;;;;;;;;;;;;4.26;58.91;99921.52;1742029;82;20220;-53
2021/03/22 06:48:28;;;;;;;;;;;;;;;4.29;58.64;99923.06;1765021;80;20209;-52
2021/03/22 06:51:36;;;;;;;;;;;;;;;4.35;58.81;99922.47;1768048;80;20353;-50
2021/03/22 06:54:49;;;;;;;;;;;;;;;4.37;58.59;99921.83;1714851;82;20194;-51
2021/03/22 06:57:59;;;;;;;;;;;;;;;4.39;58.75;99911.17;1716651;83;20233;-51
2021/03/22 07:01:21;;;;;;;;;;;;;;;4.40;58.81;99914.75;1722542;82;20217;-50
2021/03/22 07:04:39;;;;;;;;;;;;;;;4.45;59.23;99911.10;1742858;82;20251;-50
2021/03/22 07:07:48;;;;;;;;;;;;;;;4.53;59.14;99907.98;1750139;81;20283;-51
2021/03/22 07:11:01;;;;;;;;;;;;;;;4.61;59.05;99916.22;1751419;82;20277;-50
2021/03/22 07:14:08;;;;;;;;;;;;;;;4.66;58.87;99921.71;1751102;81;20203;-50
2021/03/22 07:17:15;;;;;;;;;;;;;;;4.71;58.91;99910.75;1754827;81;20235;-50
2021/03/22 07:20:21;;;;;;;;;;;;;;;4.78;59.08;99906.94;1752938;81;20215;-52
2021/03/22 07:23:33;;;;;;;;;;;;;;;4.83;59.29;99910.06;1727077;82;20220;-51
2021/03/22 07:26:56;;;;;;;;;;;;;;;4.91;59.30;99903.38;1749183;81;20204;-51
2021/03/22 07:30:24;;;;;;;;;;;;;;;4.98;58.57;99908.03;1751566;82;20530;-52
2021/03/22 07:33:37;;;;;;;;;;;;;;;5.02;58.46;99908.59;1753201;82;20305;-51
2021/03/22 07:37:04;;;;;;;;;;;;;;;5.08;58.60;99907.48;1751579;82;20583;-53
2021/03/22 07:40:19;;;;;;;;;;;;;;;5.14;58.66;99904.67;1748855;81;20219;-53
2021/03/22 07:43:41;;;;;;;;;;;;;;;5.19;58.57;99904.55;1752262;82;20208;-51
2021/03/22 07:47:07;;;;;;;;;;;;;;;5.24;58.94;99904.09;1752042;81;20195;-51
2021/03/22 07:50:28;;;;;;;;;;;;;;;5.34;58.99;99900.31;1752864;82;20279;-51
2021/03/22 07:53:40;;;;;;;;;;;;;;;5.45;58.75;99894.66;1750753;82;20206;-52
2021/03/22 07:57:10;;;;;;;;;;;;;;;5.52;58.21;99901.14;1753899;81;20278;-52
2021/03/22 08:00:54;;;;;;;;;;;;;;;5.56;57.83;99898.98;1741274;80;20488;-54
2021/03/22 08:04:03;;;;;;;;;;;;;;;5.59;58.29;99901.37;1712334;83;20576;-52
2021/03/22 08:07:17;;;;;;;;;;;;;;;5.61;57.72;99899.38;1709632;83;20223;-52
2021/03/22 08:10:49;;;;;;;;;;;;;;;5.66;57.65;99890.26;1738317;82;20360;-52
2021/03/22 08:14:00;;;;;;;;;;;;;;;5.73;57.83;99891.31;1684137;85;20284;-52
2021/03/22 08:17:32;;;;;;;;;;;;;;;5.77;57.73;99888.66;1679448;85;20609;-52
2021/03/22 08:20:42;;;;;;;;;;;;;;;5.84;57.98;99875.67;1707041;83;20538;-52
2021/03/22 08:23:58;;;;;;;;;;;;;;;5.90;57.62;99876.88;1679763;85;20245;-51
2021/03/22 08:27:20;;;;;;;;;;;;;;;5.96;57.84;99885.78;1675777;82;20257;-51
2021/03/22 08:30:39;;;;;;;;;;;;;;;6.03;57.87;99879.55;1686324;82;20210;-52
2021/03/22 08:33:58;;;;;;;;;;;;;;;6.11;57.97;99871.94;1683192;83;20245;-52
2021/03/22 08:37:15;;;;;;;;;;;;;;;6.20;57.94;99868.78;1744107;81;20212;-50
2021/03/22 08:40:24;;;;;;;;;;;;;;;6.26;57.90;99866.28;1690368;84;20617;-51
2021/03/22 08:43:43;;;;;;;;;;;;;;;6.32;57.81;99858.83;1708221;83;20289;-57
2021/03/22 08:47:11;;;;;;;;;;;;;;;6.37;57.90;99858.34;1708034;83;20203;-51
2021/03/22 08:50:36;;;;;;;;;;;;;;;6.48;57.74;99859.42;1697296;83;20255;-50
2021/03/22 08:53:43;;;;;;;;;;;;;;;6.45;57.80;99852.45;1737131;81;20216;-51
2021/03/22 08:56:51;;;;;;;;;;;;;;;6.52;58.68;99847.19;1708736;83;20573;-51
2021/03/22 09:00:37;;;;;;;;;;;;;;;6.61;58.45;99847.05;1703478;82;20209;-50
2021/03/22 09:03:47;;;;;;;;;;;;;;;6.70;58.04;99847.45;1720842;83;20196;-51
2021/03/22 09:07:12;;;;;;;;;;;;;;;6.77;58.22;99847.13;1722082;83;20223;-52
2021/03/22 09:10:33;;;;;;;;;;;;;;;6.91;58.12;99841.58;1755900;81;20282;-52
2021/03/22 09:13:46;;;;;;;;;;;;;;;7.03;57.63;99842.45;1755993;81;20603;-50
2021/03/22 09:16:59;;;;;;;;;;;;;;;7.15;57.75;99837.02;1755642;81;20282;-52
2021/03/22 09:20:36;;;;;;;;;;;;;;;7.28;57.12;99827.00;1739245;82;20509;-52
2021/03/22 09:23:44;;;;;;;;;;;;;;;7.37;56.93;99820.03;1720979;83;20260;-53
2021/03/22 09:27:02;;;;;;;;;;;;;;;7.54;57.05;99818.18;1720510;83;20624;-52
2021/03/22 09:30:14;;;;;;;;;;;;;;;7.74;56.84;99813.25;1766904;81;20246;-54
2021/03/22 09:33:19;;;;;;;;;;;;;;;7.87;56.66;99819.86;1779137;81;20271;-53
2021/03/22 09:36:40;;;;;;;;;;;;;;;8.01;54.67;99816.95;1758391;80;20450;-52
2021/03/22 09:39:53;;;;;;;;;;;;;;;8.13;54.65;99812.33;1721734;80;20207;-51
2021/03/22 09:43:15;;;;;;;;;;;;;;;8.36;54.23;99809.70;1726249;81;20301;-53
2021/03/22 09:46:36;;;;;;;;;;;;;;;8.60;53.98;99817.80;1722633;81;20321;-54
2021/03/22 09:50:00;;;;;;;;;;;;;;;8.82;52.69;99817.02;1781348;80;20609;-53
2021/03/22 09:53:24;;;;;;;;;;;;;;;8.96;52.23;99813.02;1748566;81;20633;-53
2021/03/22 09:56:45;;;;;;;;;;;;;;;9.05;50.99;99811.09;1750390;82;20244;-52
2021/03/22 10:00:14;;;;;;;;;;;;;;;9.06;50.40;99811.42;1743983;80;20583;-53
2021/03/22 10:03:48;;;;;;;;;;;;;;;8.98;49.22;99816.93;1749103;82;20214;-52
2021/03/22 10:07:10;;;;;;;;;;;;;;;8.86;49.13;99819.73;1750544;82;20238;-53
2021/03/22 10:10:32;;;;;;;;;;;;;;;8.84;47.90;99816.33;1755519;81;20627;-54
2021/03/22 10:13:48;;;;;;;;;;;;;;;8.81;47.57;99813.96;1750807;81;20293;-51
2021/03/22 10:16:53;;;;;;;;;;;;;;;8.94;48.18;99808.24;1754796;81;20203;-52
2021/03/22 10:20:03;;;;;;;;;;;;;;;9.21;47.50;99801.95;1755940;81;20562;-54
2021/03/22 10:23:10;;;;;;;;;;;;;;;9.45;46.42;99799.87;1755492;82;20279;-52
2021/03/22 10:26:23;;;;;;;;;;;;;;;9.72;45.51;99792.47;1755722;82;20344;-50
2021/03/22 10:29:31;;;;;;;;;;;;;;;9.91;44.50;99791.94;1755182;82;20199;-51
2021/03/22 10:32:37;;;;;;;;;;;;;;;9.96;44.51;99791.38;1755238;82;20279;-51
2021/03/22 10:36:04;;;;;;;;;;;;;;;10.01;44.11;99793.04;1754432;80;20667;-53
2021/03/22 10:39:10;;;;;;;;;;;;;;;10.07;44.28;99784.98;1754805;82;20517;-51
2021/03/22 10:42:37;;;;;;;;;;;;;;;10.30;43.94;99780.80;1755009;81;20582;-52
2021/03/22 10:45:49;;;;;;;;;;;;;;;10.34;42.67;99773.89;1754423;81;20618;-51
2021/03/22 10:49:13;;;;;;;;;;;;;;;10.41;42.29;99772.11;1754816;82;20211;-52
2021/03/22 10:52:30;;;;;;;;;;;;;;;10.48;41.53;99760.21;1756137;81;20802;-53
2021/03/22 10:55:35;;;;;;;;;;;;;;;10.53;42.14;99753.66;1750055;82;20570;-53
2021/03/22 10:58:42;;;;;;;;;;;;;;;10.61;41.75;99743.65;1750522;81;20218;-53
2021/03/22 11:01:48;;;;;;;;;;;;;;;10.61;40.49;99744.48;1751617;78;20276;-52
2021/03/22 11:04:54;;;;;;;;;;;;;;;10.56;39.15;99740.09;1750508;82;20527;-54
2021/03/22 11:08:04;;;;;;;;;;;;;;;10.47;38.15;99738.51;1750571;82;20180;-54
2021/03/22 11:11:14;;;;;;;;;;;;;;;10.35;37.54;99729.93;1753237;81;20207;-53
2021/03/22 11:14:25;;;;;;;;;;;;;;;10.26;37.90;99728.34;1760515;81;20635;-52
2021/03/22 11:17:30;;;;;;;;;;;;;;;10.19;37.43;99734.77;1750309;81;20211;-53
2021/03/22 11:20:35;;;;;;;;;;;;;;;10.09;35.97;99733.69;1728882;82;20213;-54
2021/03/22 11:23:50;;;;;;;;;;;;;;;10.21;34.93;99732.70;1751591;81;20506;-54
2021/03/22 11:27:05;;;;;;;;;;;;;;;10.45;35.24;99726.90;1753919;81;20250;-53
2021/03/22 11:30:13;;;;;;;;;;;;;;;10.73;35.52;99714.73;1750153;81;20211;-54
2021/03/22 11:33:28;;;;;;;;;;;;;;;10.99;34.67;99716.41;1753605;81;20199;-54
2021/03/22 11:36:44;;;;;;;;;;;;;;;11.22;34.86;99718.41;1751080;81;20599;-56
2021/03/22 11:39:50;;;;;;;;;;;;;;;11.40;34.08;99710.05;1751456;81;20532;-55
2021/03/22 11:43:04;;;;;;;;;;;;;;;11.33;34.54;99716.00;1750284;81;20212;-55
2021/03/22 11:46:24;;;;;;;;;;;;;;;11.35;35.16;99711.16;1750553;81;20215;-55
2021/03/22 11:49:46;;;;;;;;;;;;;;;11.45;33.83;99708.93;1767292;80;20334;-56
2021/03/22 11:52:49;;;;;;;;;;;;;;;11.48;33.75;99718.67;1784214;80;20209;-56
2021/03/22 11:56:00;;;;;;;;;;;;;;;11.46;33.60;99714.76;1740674;81;20219;-56
2021/03/22 11:59:23;;;;;;;;;;;;;;;11.37;32.38;99720.58;1751013;81;20247;-54
2021/03/22 12:02:29;;;;;;;;;;;;;;;11.13;33.17;99718.23;1746836;81;20257;-54
2021/03/22 12:05:42;;;;;;;;;;;;;;;11.06;34.18;99720.03;1699296;84;20289;-55
2021/03/22 12:08:52;;;;;;;;;;;;;;;11.17;34.95;99715.41;1701483;84;20212;-55
2021/03/22 12:11:57;;;;;;;;;;;;;;;11.11;34.87;99713.45;1701428;84;20481;-55
2021/03/22 12:15:02;;;;;;;;;;;;;;;10.88;33.92;99722.39;1709260;83;20215;-55
2021/03/22 12:18:12;;;;;;;;;;;;;;;10.56;33.59;99715.46;1680243;85;20614;-56
2021/03/22 12:21:18;;;;;;;;;;;;;;;10.29;33.74;99714.28;1699357;84;20223;-57
2021/03/22 12:24:25;;;;;;;;;;;;;;;10.08;33.94;99722.43;1702317;84;20208;-55
2021/03/22 12:27:31;;;;;;;;;;;;;;;9.95;34.10;99719.47;1691148;83;20223;-56
2021/03/22 12:30:35;;;;;;;;;;;;;;;9.84;34.38;99714.97;1682576;85;20214;-57
2021/03/22 12:33:41;;;;;;;;;;;;;;;9.84;34.53;99716.34;1673145;85;20309;-54
2021/03/22 12:36:46;;;;;;;;;;;;;;;9.79;34.32;99710.58;1674043;85;20214;-57
2021/03/22 12:39:51;;;;;;;;;;;;;;;9.81;34.72;99705.28;1688502;83;20236;-56
2021/03/22 12:42:55;;;;;;;;;;;;;;;9.89;34.78;99703.82;1689442;84;20593;-56
2021/03/22 12:45:59;;;;;;;;;;;;;;;9.96;34.92;99703.37;1688669;85;20224;-56
2021/03/22 12:49:04;;;;;;;;;;;;;;;9.97;34.60;99700.14;1741549;82;20248;-55
2021/03/22 12:52:08;;;;;;;;;;;;;;;9.95;35.03;99702.20;1741890;82;20262;-56
2021/03/22 12:55:16;;;;;;;;;;;;;;;9.89;35.16;99689.30;1739853;82;20683;-55
2021/03/22 12:58:25;;;;;;;;;;;;;;;9.91;35.27;99698.17;1711012;84;20227;-56
2021/03/22 13:01:28;;;;;;;;;;;;;;;9.90;35.30;99693.20;1681603;85;20361;-56
2021/03/22 13:04:33;;;;;;;;;;;;;;;9.90;35.62;99695.08;1698985;82;20259;-55
2021/03/22 13:07:37;;;;;;;;;;;;;;;9.97;35.68;99698.23;1721878;82;20283;-56
2021/03/22 13:10:43;;;;;;;;;;;;;;;10.11;35.31;99682.40;1744193;82;20223;-55
2021/03/22 13:13:47;;;;;;;;;;;;;;;10.33;35.18;99685.53;1745184;82;20204;-55
2021/03/22 13:16:53;;;;;;;;;;;;;;;10.53;35.02;99677.53;1744630;82;20263;-56
2021/03/22 13:19:57;;;;;;;;;;;;;;;10.62;35.45;99674.17;1744799;82;20227;-56
2021/03/22 13:23:06;;;;;;;;;;;;;;;10.59;35.94;99668.04;1745029;82;20292;-55
2021/03/22 13:26:12;;;;;;;;;;;;;;;10.53;35.84;99681.13;1745038;82;20215;-55
2021/03/22 13:29:17;;;;;;;;;;;;;;;10.43;36.18;99671.00;1745109;82;20230;-55
2021/03/22 13:32:22;;;;;;;;;;;;;;;10.28;36.34;99674.30;1744925;82;20220;-56
2021/03/22 13:35:31;;;;;;;;;;;;;;;10.15;36.51;99677.38;1745229;82;20228;-55
2021/03/22 13:38:37;;;;;;;;;;;;;;;10.05;36.61;99673.53;1745103;82;20196;-54
2021/03/22 13:41:44;;;;;;;;;;;;;;;10.03;37.09;99673.41;1745042;82;20536;-55
2021/03/22 13:44:48;;;;;;;;;;;;;;;10.08;36.97;99669.11;1744903;82;20288;-54
2021/03/22 13:47:53;;;;;;;;;;;;;;;10.10;36.83;99675.21;1746086;81;20237;-54
2021/03/22 13:50:59;;;;;;;;;;;;;;;10.05;37.20;99668.06;1737984;82;20531;-54
2021/03/22 13:54:02;;;;;;;;;;;;;;;10.08;37.37;99672.35;1739540;82;20712;-55
2021/03/22 13:57:10;;;;;;;;;;;;;;;10.09;36.84;99669.42;1726496;82;20231;-58
2021/03/22 14:00:15;;;;;;;;;;;;;;;10.05;36.64;99665.32;1744954;82;20579;-54
2021/03/22 14:03:19;;;;;;;;;;;;;;;9.99;37.17;99659.80;1744940;82;20619;-55
2021/03/22 14:06:24;;;;;;;;;;;;;;;9.98;37.63;99665.77;1748591;78;20242;-55
2021/03/22 14:09:27;;;;;;;;;;;;;;;9.97;37.81;99659.95;1751606;82;20206;-54
2021/03/22 14:12:32;;;;;;;;;;;;;;;9.93;37.97;99655.92;1750069;82;20255;-56
2021/03/22 14:15:39;;;;;;;;;;;;;;;9.86;38.19;99656.33;1719994;83;20569;-55
2021/03/22 14:18:46;;;;;;;;;;;;;;;9.80;38.63;99659.83;1719462;83;20233;-55
2021/03/22 14:21:52;;;;;;;;;;;;;;;9.76;38.90;99662.62;1723980;83;20218;-54
2021/03/22 14:24:57;;;;;;;;;;;;;;;9.73;39.08;99657.53;1732525;81;20248;-54
2021/03/22 14:28:01;;;;;;;;;;;;;;;9.72;39.19;99657.72;1745498;81;20654;-54
2021/03/22 14:31:05;;;;;;;;;;;;;;;9.79;39.33;99656.77;1668351;86;20607;-55
2021/03/22 14:34:12;;;;;;;;;;;;;;;9.84;39.26;99653.47;1725153;83;20544;-54
2021/03/22 14:37:17;;;;;;;;;;;;;;;9.93;39.73;99653.19;1722955;83;20611;-54
2021/03/22 14:40:27;;;;;;;;;;;;;;;10.02;40.12;99658.87;1723315;83;20393;-56
2021/03/22 14:43:33;;;;;;;;;;;;;;;9.90;39.68;99660.40;1722624;82;20631;-55
2021/03/22 14:46:37;;;;;;;;;;;;;;;9.76;39.90;99663.13;1721062;83;20324;-54
2021/03/22 14:49:44;;;;;;;;;;;;;;;9.61;40.18;99663.66;1747896;81;20482;-53
2021/03/22 14:52:47;;;;;;;;;;;;;;;9.45;40.88;99670.11;1754786;81;20548;-54
2021/03/22 14:55:52;;;;;;;;;;;;;;;9.33;41.85;99665.28;1722895;83;20237;-53
2021/03/22 14:58:56;;;;;;;;;;;;;;;9.30;42.59;99677.45;1748271;82;20333;-54
2021/03/22 15:02:02;;;;;;;;;;;;;;;9.27;43.00;99675.59;1721470;83;20294;-54
2021/03/22 15:05:08;;;;;;;;;;;;;;;9.18;43.69;99680.27;1691890;84;20507;-54
2021/03/22 15:08:12;;;;;;;;;;;;;;;9.03;44.79;99678.02;1717708;80;20245;-56
2021/03/22 15:11:16;;;;;;;;;;;;;;;8.91;45.50;99683.59;1693279;84;20207;-55
2021/03/22 15:14:21;;;;;;;;;;;;;;;8.81;46.11;99681.61;1695945;84;20690;-56
2021/03/22 15:17:25;;;;;;;;;;;;;;;8.70;46.38;99679.30;1696068;84;20224;-54
2021/03/22 15:20:36;;;;;;;;;;;;;;;8.61;46.62;99680.39;1696171;84;20282;-56
2021/03/22 15:23:39;;;;;;;;;;;;;;;8.50;47.14;99678.91;1696345;84;20239;-55
2021/03/22 15:26:43;;;;;;;;;;;;;;;8.37;47.55;99685.45;1696257;84;20291;-54
2021/03/22 15:29:47;;;;;;;;;;;;;;;8.23;48.09;99689.48;1696943;83;20295;-54
2021/03/22 15:32:53;;;;;;;;;;;;;;;8.09;48.60;99688.80;1741542;81;20572;-54
2021/03/22 15:36:07;;;;;;;;;;;;;;;7.97;49.04;99690.22;1663886;84;20234;-55
2021/03/22 15:39:12;;;;;;;;;;;;;;;7.87;49.63;99689.56;1739253;81;20208;-54
2021/03/22 15:42:19;;;;;;;;;;;;;;;7.79;50.01;99697.77;1694138;83;20223;-55
2021/03/22 15:45:37;;;;;;;;;;;;;;;7.73;50.41;99687.58;1743905;82;20564;-54
2021/03/22 15:48:43;;;;;;;;;;;;;;;7.71;50.75;99686.39;1716323;83;20202;-54
2021/03/22 15:51:47;;;;;;;;;;;;;;;7.70;51.01;99690.15;1743525;81;20222;-54
2021/03/22 15:54:51;;;;;;;;;;;;;;;7.67;51.22;99692.36;1742785;81;20487;-54
2021/03/22 15:57:58;;;;;;;;;;;;;;;7.67;51.44;99690.50;1744666;81;20223;-53
2021/03/22 16:01:01;;;;;;;;;;;;;;;7.66;51.62;99697.48;1747287;82;20319;-54
2021/03/22 16:04:07;;;;;;;;;;;;;;;7.59;51.75;99689.16;1744546;81;20281;-53
2021/03/22 16:07:12;;;;;;;;;;;;;;;7.58;51.80;99699.70;1745845;81;20278;-53
2021/03/22 16:10:19;;;;;;;;;;;;;;;7.54;51.80;99704.66;1738978;82;20204;-54
2021/03/22 16:13:42;;;;;;;;;;;;;;;7.50;51.82;99708.73;1740614;82;20215;-54
2021/03/22 16:16:46;;;;;;;;;;;;;;;7.47;52.00;99713.17;1739290;82;20560;-54
2021/03/22 16:19:53;;;;;;;;;;;;;;;7.44;52.33;99714.88;1739575;82;20675;-53
2021/03/22 16:22:57;;;;;;;;;;;;;;;7.40;52.52;99709.42;1738797;82;20219;-54
2021/03/22 16:26:04;;;;;;;;;;;;;;;7.41;52.83;99713.86;1740511;82;20212;-53
2021/03/22 16:29:09;;;;;;;;;;;;;;;7.41;53.03;99719.81;1742109;82;20268;-54
2021/03/22 16:32:14;;;;;;;;;;;;;;;7.40;53.23;99717.59;1742253;82;20213;-54
2021/03/22 16:35:29;;;;;;;;;;;;;;;7.41;53.39;99723.39;1742147;82;20216;-54
2021/03/22 16:38:35;;;;;;;;;;;;;;;7.42;53.56;99726.44;1742044;82;20696;-55
2021/03/22 16:41:39;;;;;;;;;;;;;;;7.42;53.56;99725.09;1740931;82;20503;-55